sensor_id;sensor_type;location;lat;lon;timestamp;temperature;humidity
50544;DHT22;41176;44.032;20.900;2023-03-01T00:01:04;4.30;99.90
50544;DHT22;41176;44.032;20.900;2023-03-01T00:03:31;4.30;99.90
50544;DHT22;41176;44.032;20.900;2023-03-01T00:05:57;4.30;99.90
50544;DHT22;41176;44.032;20.900;2023-03-01T00:08:23;4.30;99.90
50544;DHT22;41176;44.032;20.900;2023-03-01T00:10:49;4.20;99.90
50544;DHT22;41176;44.032;20.900;2023-03-01T00:13:14;4.30;99.90
50544;DHT22;41176;44.032;20.900;2023-03-01T00:15:40;4.30;99.90
50544;DHT22;41176;44.032;20.900;2023-03-01T00:18:07;4.30;99.90
50544;DHT22;41176;44.032;20.900;2023-03-01T00:20:34;4.20;99.90
50544;DHT22;41176;44.032;20.900;2023-03-01T00:23:00;4.20;99.90
50544;DHT22;41176;44.032;20.900;2023-03-01T00:25:25;4.20;99.90
50544;DHT22;41176;44.032;20.900;2023-03-01T00:27:51;4.20;99.90
50544;DHT22;41176;44.032;20.900;2023-03-01T00:30:17;4.20;99.90
50544;DHT22;41176;44.032;20.900;2023-03-01T00:32:42;4.20;99.90
50544;DHT22;41176;44.032;20.900;2023-03-01T00:35:08;4.20;99.90
50544;DHT22;41176;44.032;20.900;2023-03-01T00:37:34;4.20;99.90
50544;DHT22;41176;44.032;20.900;2023-03-01T00:39:59;4.20;99.90
50544;DHT22;41176;44.032;20.900;2023-03-01T00:42:25;4.30;99.90
50544;DHT22;41176;44.032;20.900;2023-03-01T00:44:50;4.30;99.90
50544;DHT22;41176;44.032;20.900;2023-03-01T00:47:16;4.30;99.90
50544;DHT22;41176;44.032;20.900;2023-03-01T00:49:42;4.30;99.90
50544;DHT22;41176;44.032;20.900;2023-03-01T00:52:07;4.30;99.90
50544;DHT22;41176;44.032;20.900;2023-03-01T00:54:33;4.30;99.90
50544;DHT22;41176;44.032;20.900;2023-03-01T00:56:58;4.30;99.90
50544;DHT22;41176;44.032;20.900;2023-03-01T00:59:24;4.30;99.90
50544;DHT22;41176;44.032;20.900;2023-03-01T01:01:50;4.20;99.90
50544;DHT22;41176;44.032;20.900;2023-03-01T01:04:15;4.20;99.90
50544;DHT22;41176;44.032;20.900;2023-03-01T01:06:44;4.30;99.90
50544;DHT22;41176;44.032;20.900;2023-03-01T01:09:12;4.30;99.90
50544;DHT22;41176;44.032;20.900;2023-03-01T01:11:44;4.30;99.90
50544;DHT22;41176;44.032;20.900;2023-03-01T01:14:09;4.30;99.90
50544;DHT22;41176;44.032;20.900;2023-03-01T01:16:35;4.20;99.90
50544;DHT22;41176;44.032;20.900;2023-03-01T01:19:01;4.20;99.90
50544;DHT22;41176;44.032;20.900;2023-03-01T01:21:27;4.20;99.90
50544;DHT22;41176;44.032;20.900;2023-03-01T01:23:53;4.20;99.90
50544;DHT22;41176;44.032;20.900;2023-03-01T01:26:25;4.10;99.90
50544;DHT22;41176;44.032;20.900;2023-03-01T01:28:51;4.20;99.90
50544;DHT22;41176;44.032;20.900;2023-03-01T01:31:18;4.20;99.90
50544;DHT22;41176;44.032;20.900;2023-03-01T01:33:44;4.20;99.90
50544;DHT22;41176;44.032;20.900;2023-03-01T01:36:10;4.20;99.90
50544;DHT22;41176;44.032;20.900;2023-03-01T01:38:37;4.20;99.90
50544;DHT22;41176;44.032;20.900;2023-03-01T01:41:04;4.20;99.90
50544;DHT22;41176;44.032;20.900;2023-03-01T01:43:38;4.30;99.90
50544;DHT22;41176;44.032;20.900;2023-03-01T01:46:32;4.30;99.90
50544;DHT22;41176;44.032;20.900;2023-03-01T01:49:23;4.30;99.90
50544;DHT22;41176;44.032;20.900;2023-03-01T01:52:04;4.30;99.90
50544;DHT22;41176;44.032;20.900;2023-03-01T01:57:24;4.30;99.90
50544;DHT22;41176;44.032;20.900;2023-03-01T01:59:52;4.30;99.90
50544;DHT22;41176;44.032;20.900;2023-03-01T02:02:19;4.30;99.90
50544;DHT22;41176;44.032;20.900;2023-03-01T02:04:47;4.20;99.90
50544;DHT22;41176;44.032;20.900;2023-03-01T02:07:15;4.10;99.90
50544;DHT22;41176;44.032;20.900;2023-03-01T02:09:44;4.10;99.90
50544;DHT22;41176;44.032;20.900;2023-03-01T02:12:11;4.10;99.90
50544;DHT22;41176;44.032;20.900;2023-03-01T02:14:37;4.20;99.90
50544;DHT22;41176;44.032;20.900;2023-03-01T02:17:02;4.20;99.90
50544;DHT22;41176;44.032;20.900;2023-03-01T02:22:27;4.20;99.90
50544;DHT22;41176;44.032;20.900;2023-03-01T02:27:23;4.20;99.90
50544;DHT22;41176;44.032;20.900;2023-03-01T02:29:51;4.20;99.90
50544;DHT22;41176;44.032;20.900;2023-03-01T02:32:18;4.20;99.90
50544;DHT22;41176;44.032;20.900;2023-03-01T02:34:52;4.20;99.90
50544;DHT22;41176;44.032;20.900;2023-03-01T02:37:19;4.20;99.90
50544;DHT22;41176;44.032;20.900;2023-03-01T02:39:56;4.20;99.90
50544;DHT22;41176;44.032;20.900;2023-03-01T02:42:28;4.30;99.90
50544;DHT22;41176;44.032;20.900;2023-03-01T02:44:56;4.20;99.90
50544;DHT22;41176;44.032;20.900;2023-03-01T02:47:21;4.30;99.90
50544;DHT22;41176;44.032;20.900;2023-03-01T02:49:47;4.30;99.90
50544;DHT22;41176;44.032;20.900;2023-03-01T02:55:05;4.20;99.90
50544;DHT22;41176;44.032;20.900;2023-03-01T02:57:33;4.10;99.90
50544;DHT22;41176;44.032;20.900;2023-03-01T03:00:03;4.20;99.90
50544;DHT22;41176;44.032;20.900;2023-03-01T03:02:34;4.20;99.90
50544;DHT22;41176;44.032;20.900;2023-03-01T03:05:13;4.20;99.90
50544;DHT22;41176;44.032;20.900;2023-03-01T03:07:42;4.20;99.90
50544;DHT22;41176;44.032;20.900;2023-03-01T03:10:14;4.20;99.90
50544;DHT22;41176;44.032;20.900;2023-03-01T03:12:41;4.20;99.90
50544;DHT22;41176;44.032;20.900;2023-03-01T03:15:08;4.10;99.90
50544;DHT22;41176;44.032;20.900;2023-03-01T03:17:37;4.10;99.90
50544;DHT22;41176;44.032;20.900;2023-03-01T03:20:07;4.00;99.90
50544;DHT22;41176;44.032;20.900;2023-03-01T03:22:38;4.00;99.90
50544;DHT22;41176;44.032;20.900;2023-03-01T03:25:06;4.00;99.90
50544;DHT22;41176;44.032;20.900;2023-03-01T03:27:39;4.10;99.90
50544;DHT22;41176;44.032;20.900;2023-03-01T03:30:07;4.10;99.90
50544;DHT22;41176;44.032;20.900;2023-03-01T03:32:41;4.10;99.90
50544;DHT22;41176;44.032;20.900;2023-03-01T03:35:09;4.10;99.90
50544;DHT22;41176;44.032;20.900;2023-03-01T03:37:39;4.10;99.90
50544;DHT22;41176;44.032;20.900;2023-03-01T03:40:25;4.10;99.90
50544;DHT22;41176;44.032;20.900;2023-03-01T03:42:51;4.20;99.90
50544;DHT22;41176;44.032;20.900;2023-03-01T03:45:17;4.20;99.90
50544;DHT22;41176;44.032;20.900;2023-03-01T03:47:43;4.30;99.90
50544;DHT22;41176;44.032;20.900;2023-03-01T03:50:11;4.20;99.90
50544;DHT22;41176;44.032;20.900;2023-03-01T03:52:36;4.20;99.90
50544;DHT22;41176;44.032;20.900;2023-03-01T03:55:03;4.20;99.90
50544;DHT22;41176;44.032;20.900;2023-03-01T03:57:28;4.30;99.90
50544;DHT22;41176;44.032;20.900;2023-03-01T03:59:54;4.30;99.90
50544;DHT22;41176;44.032;20.900;2023-03-01T04:02:19;4.20;99.90
50544;DHT22;41176;44.032;20.900;2023-03-01T04:04:48;4.20;99.90
50544;DHT22;41176;44.032;20.900;2023-03-01T04:07:18;4.20;99.90
50544;DHT22;41176;44.032;20.900;2023-03-01T04:09:44;4.20;99.90
50544;DHT22;41176;44.032;20.900;2023-03-01T04:12:10;4.20;99.90
50544;DHT22;41176;44.032;20.900;2023-03-01T04:14:36;4.10;99.90
50544;DHT22;41176;44.032;20.900;2023-03-01T04:17:02;4.20;99.90
50544;DHT22;41176;44.032;20.900;2023-03-01T04:19:33;4.20;99.90
50544;DHT22;41176;44.032;20.900;2023-03-01T04:22:02;4.10;99.90
50544;DHT22;41176;44.032;20.900;2023-03-01T04:24:35;4.10;99.90
50544;DHT22;41176;44.032;20.900;2023-03-01T04:27:01;4.10;99.90
50544;DHT22;41176;44.032;20.900;2023-03-01T04:29:27;4.10;99.90
50544;DHT22;41176;44.032;20.900;2023-03-01T04:31:52;4.20;99.90
50544;DHT22;41176;44.032;20.900;2023-03-01T04:34:18;4.10;99.90
50544;DHT22;41176;44.032;20.900;2023-03-01T04:36:44;4.10;99.90
50544;DHT22;41176;44.032;20.900;2023-03-01T04:39:10;4.20;99.90
50544;DHT22;41176;44.032;20.900;2023-03-01T04:41:38;4.20;99.90
50544;DHT22;41176;44.032;20.900;2023-03-01T04:44:05;4.30;99.90
50544;DHT22;41176;44.032;20.900;2023-03-01T04:46:31;4.30;99.90
50544;DHT22;41176;44.032;20.900;2023-03-01T04:48:57;4.40;99.90
50544;DHT22;41176;44.032;20.900;2023-03-01T04:51:23;4.40;99.90
50544;DHT22;41176;44.032;20.900;2023-03-01T04:53:49;4.40;99.90
50544;DHT22;41176;44.032;20.900;2023-03-01T04:56:15;4.30;99.90
50544;DHT22;41176;44.032;20.900;2023-03-01T04:58:43;4.30;99.90
50544;DHT22;41176;44.032;20.900;2023-03-01T05:01:15;4.30;99.90
50544;DHT22;41176;44.032;20.900;2023-03-01T05:03:43;4.20;99.90
50544;DHT22;41176;44.032;20.900;2023-03-01T05:06:09;4.30;99.90
50544;DHT22;41176;44.032;20.900;2023-03-01T05:08:37;4.20;99.90
50544;DHT22;41176;44.032;20.900;2023-03-01T05:11:03;4.20;99.90
50544;DHT22;41176;44.032;20.900;2023-03-01T05:13:29;4.20;99.90
50544;DHT22;41176;44.032;20.900;2023-03-01T05:16:02;4.20;99.90
50544;DHT22;41176;44.032;20.900;2023-03-01T05:18:30;4.20;99.90
50544;DHT22;41176;44.032;20.900;2023-03-01T05:21:02;4.20;99.90
50544;DHT22;41176;44.032;20.900;2023-03-01T05:23:30;4.20;99.90
50544;DHT22;41176;44.032;20.900;2023-03-01T05:26:00;4.10;99.90
50544;DHT22;41176;44.032;20.900;2023-03-01T05:28:27;4.20;99.90
50544;DHT22;41176;44.032;20.900;2023-03-01T05:30:54;4.20;99.90
50544;DHT22;41176;44.032;20.900;2023-03-01T05:33:19;4.20;99.90
50544;DHT22;41176;44.032;20.900;2023-03-01T05:35:48;4.10;99.90
50544;DHT22;41176;44.032;20.900;2023-03-01T05:38:15;4.10;99.90
50544;DHT22;41176;44.032;20.900;2023-03-01T05:40:42;4.10;99.90
50544;DHT22;41176;44.032;20.900;2023-03-01T05:43:09;4.20;99.90
50544;DHT22;41176;44.032;20.900;2023-03-01T05:45:37;4.20;99.90
50544;DHT22;41176;44.032;20.900;2023-03-01T05:48:03;4.20;99.90
50544;DHT22;41176;44.032;20.900;2023-03-01T05:50:33;4.30;99.90
50544;DHT22;41176;44.032;20.900;2023-03-01T05:53:03;4.30;99.90
50544;DHT22;41176;44.032;20.900;2023-03-01T05:55:31;4.30;99.90
50544;DHT22;41176;44.032;20.900;2023-03-01T05:58:10;4.40;99.90
50544;DHT22;41176;44.032;20.900;2023-03-01T06:00:36;4.40;99.90
50544;DHT22;41176;44.032;20.900;2023-03-01T06:03:02;4.30;99.90
50544;DHT22;41176;44.032;20.900;2023-03-01T06:05:28;4.40;99.90
50544;DHT22;41176;44.032;20.900;2023-03-01T06:07:54;4.40;99.90
50544;DHT22;41176;44.032;20.900;2023-03-01T06:10:21;4.40;99.90
50544;DHT22;41176;44.032;20.900;2023-03-01T06:12:47;4.40;99.90
50544;DHT22;41176;44.032;20.900;2023-03-01T06:15:15;4.50;99.90
50544;DHT22;41176;44.032;20.900;2023-03-01T06:17:44;4.50;99.90
50544;DHT22;41176;44.032;20.900;2023-03-01T06:20:19;4.50;99.90
50544;DHT22;41176;44.032;20.900;2023-03-01T06:22:45;4.50;99.90
50544;DHT22;41176;44.032;20.900;2023-03-01T06:25:14;4.40;99.90
50544;DHT22;41176;44.032;20.900;2023-03-01T06:27:40;4.50;99.90
50544;DHT22;41176;44.032;20.900;2023-03-01T06:30:07;4.50;99.90
50544;DHT22;41176;44.032;20.900;2023-03-01T06:32:35;4.50;99.90
50544;DHT22;41176;44.032;20.900;2023-03-01T06:35:00;4.60;99.90
50544;DHT22;41176;44.032;20.900;2023-03-01T06:37:26;4.70;99.90
50544;DHT22;41176;44.032;20.900;2023-03-01T06:39:52;4.70;99.90
50544;DHT22;41176;44.032;20.900;2023-03-01T06:42:17;4.60;99.90
50544;DHT22;41176;44.032;20.900;2023-03-01T06:44:44;4.70;99.90
50544;DHT22;41176;44.032;20.900;2023-03-01T06:47:09;4.80;99.90
50544;DHT22;41176;44.032;20.900;2023-03-01T06:49:35;4.90;99.90
50544;DHT22;41176;44.032;20.900;2023-03-01T06:52:01;5.10;99.90
50544;DHT22;41176;44.032;20.900;2023-03-01T06:54:26;5.00;99.90
50544;DHT22;41176;44.032;20.900;2023-03-01T06:56:52;5.00;99.90
50544;DHT22;41176;44.032;20.900;2023-03-01T06:59:18;4.90;99.90
50544;DHT22;41176;44.032;20.900;2023-03-01T07:01:44;4.90;99.90
50544;DHT22;41176;44.032;20.900;2023-03-01T07:04:11;5.00;99.90
50544;DHT22;41176;44.032;20.900;2023-03-01T07:06:37;5.00;99.90
50544;DHT22;41176;44.032;20.900;2023-03-01T07:09:03;5.10;99.90
50544;DHT22;41176;44.032;20.900;2023-03-01T07:11:28;5.20;99.90
50544;DHT22;41176;44.032;20.900;2023-03-01T07:13:54;5.20;99.90
50544;DHT22;41176;44.032;20.900;2023-03-01T07:16:20;5.20;99.90
50544;DHT22;41176;44.032;20.900;2023-03-01T07:18:46;5.30;99.90
50544;DHT22;41176;44.032;20.900;2023-03-01T07:21:13;5.40;99.90
50544;DHT22;41176;44.032;20.900;2023-03-01T07:23:39;5.40;99.90
50544;DHT22;41176;44.032;20.900;2023-03-01T07:26:06;5.60;99.90
50544;DHT22;41176;44.032;20.900;2023-03-01T07:28:31;5.70;99.90
50544;DHT22;41176;44.032;20.900;2023-03-01T07:31:05;5.80;99.90
50544;DHT22;41176;44.032;20.900;2023-03-01T07:33:32;5.90;99.90
50544;DHT22;41176;44.032;20.900;2023-03-01T07:35:59;5.90;99.90
50544;DHT22;41176;44.032;20.900;2023-03-01T07:38:25;5.90;99.90
50544;DHT22;41176;44.032;20.900;2023-03-01T07:40:52;6.00;99.90
50544;DHT22;41176;44.032;20.900;2023-03-01T07:43:17;6.00;99.90
50544;DHT22;41176;44.032;20.900;2023-03-01T07:45:43;6.00;99.90
50544;DHT22;41176;44.032;20.900;2023-03-01T07:48:09;6.20;99.90
50544;DHT22;41176;44.032;20.900;2023-03-01T07:50:35;6.30;99.90
50544;DHT22;41176;44.032;20.900;2023-03-01T07:53:00;6.30;99.90
50544;DHT22;41176;44.032;20.900;2023-03-01T07:55:26;6.30;99.90
50544;DHT22;41176;44.032;20.900;2023-03-01T07:57:52;6.40;99.90
50544;DHT22;41176;44.032;20.900;2023-03-01T08:00:18;6.40;99.90
50544;DHT22;41176;44.032;20.900;2023-03-01T08:02:43;6.50;99.90
50544;DHT22;41176;44.032;20.900;2023-03-01T08:05:10;6.70;99.90
50544;DHT22;41176;44.032;20.900;2023-03-01T08:07:35;6.90;99.90
50544;DHT22;41176;44.032;20.900;2023-03-01T08:10:01;7.00;99.90
50544;DHT22;41176;44.032;20.900;2023-03-01T08:12:27;7.20;99.90
50544;DHT22;41176;44.032;20.900;2023-03-01T08:14:53;7.30;99.90
50544;DHT22;41176;44.032;20.900;2023-03-01T08:17:19;7.50;99.90
50544;DHT22;41176;44.032;20.900;2023-03-01T08:19:45;7.60;99.90
50544;DHT22;41176;44.032;20.900;2023-03-01T08:22:11;8.30;99.90
50544;DHT22;41176;44.032;20.900;2023-03-01T08:24:37;8.80;99.90
50544;DHT22;41176;44.032;20.900;2023-03-01T08:27:03;9.60;99.90
50544;DHT22;41176;44.032;20.900;2023-03-01T08:29:31;10.20;99.90
50544;DHT22;41176;44.032;20.900;2023-03-01T08:31:56;10.30;99.90
50544;DHT22;41176;44.032;20.900;2023-03-01T08:34:22;10.50;99.90
50544;DHT22;41176;44.032;20.900;2023-03-01T08:36:48;10.40;99.90
50544;DHT22;41176;44.032;20.900;2023-03-01T08:39:16;10.40;99.90
50544;DHT22;41176;44.032;20.900;2023-03-01T08:41:46;10.20;99.90
50544;DHT22;41176;44.032;20.900;2023-03-01T08:44:49;10.10;99.90
50544;DHT22;41176;44.032;20.900;2023-03-01T08:47:14;9.80;99.90
50544;DHT22;41176;44.032;20.900;2023-03-01T08:49:40;10.00;99.90
50544;DHT22;41176;44.032;20.900;2023-03-01T08:52:06;10.20;99.90
50544;DHT22;41176;44.032;20.900;2023-03-01T08:54:32;10.00;99.90
50544;DHT22;41176;44.032;20.900;2023-03-01T08:56:57;10.30;99.90
50544;DHT22;41176;44.032;20.900;2023-03-01T08:59:25;10.70;99.90
50544;DHT22;41176;44.032;20.900;2023-03-01T09:01:50;11.30;99.90
50544;DHT22;41176;44.032;20.900;2023-03-01T09:04:16;11.40;96.90
50544;DHT22;41176;44.032;20.900;2023-03-01T09:06:42;10.80;97.90
50544;DHT22;41176;44.032;20.900;2023-03-01T09:09:13;10.60;99.90
50544;DHT22;41176;44.032;20.900;2023-03-01T09:11:40;10.70;99.90
50544;DHT22;41176;44.032;20.900;2023-03-01T09:14:06;11.30;97.90
50544;DHT22;41176;44.032;20.900;2023-03-01T09:16:32;11.20;98.20
50544;DHT22;41176;44.032;20.900;2023-03-01T09:19:02;11.20;97.50
50544;DHT22;41176;44.032;20.900;2023-03-01T09:21:28;11.00;96.40
50544;DHT22;41176;44.032;20.900;2023-03-01T09:23:56;11.10;97.80
50544;DHT22;41176;44.032;20.900;2023-03-01T09:26:22;11.00;98.10
50544;DHT22;41176;44.032;20.900;2023-03-01T09:28:50;11.10;98.20
50544;DHT22;41176;44.032;20.900;2023-03-01T09:31:17;11.60;98.60
50544;DHT22;41176;44.032;20.900;2023-03-01T09:33:48;11.70;95.90
50544;DHT22;41176;44.032;20.900;2023-03-01T09:36:18;11.80;96.10
50544;DHT22;41176;44.032;20.900;2023-03-01T09:38:44;11.60;96.20
50544;DHT22;41176;44.032;20.900;2023-03-01T09:43:52;11.20;94.20
50544;DHT22;41176;44.032;20.900;2023-03-01T09:46:22;11.00;95.50
50544;DHT22;41176;44.032;20.900;2023-03-01T09:48:50;11.10;94.90
50544;DHT22;41176;44.032;20.900;2023-03-01T09:51:26;11.10;95.60
50544;DHT22;41176;44.032;20.900;2023-03-01T09:53:52;11.20;97.40
50544;DHT22;41176;44.032;20.900;2023-03-01T10:01:51;11.80;95.00
50544;DHT22;41176;44.032;20.900;2023-03-01T10:04:57;12.20;95.30
50544;DHT22;41176;44.032;20.900;2023-03-01T10:10:36;12.00;94.60
50544;DHT22;41176;44.032;20.900;2023-03-01T10:16:17;11.40;95.40
50544;DHT22;41176;44.032;20.900;2023-03-01T10:18:47;11.20;95.00
50544;DHT22;41176;44.032;20.900;2023-03-01T10:21:19;11.00;96.80
50544;DHT22;41176;44.032;20.900;2023-03-01T10:23:46;11.00;99.60
50544;DHT22;41176;44.032;20.900;2023-03-01T10:26:18;10.90;99.10
50544;DHT22;41176;44.032;20.900;2023-03-01T10:29:07;10.80;97.40
50544;DHT22;41176;44.032;20.900;2023-03-01T10:31:51;10.70;99.70
50544;DHT22;41176;44.032;20.900;2023-03-01T10:34:20;10.70;98.40
50544;DHT22;41176;44.032;20.900;2023-03-01T10:36:50;10.50;99.20
50544;DHT22;41176;44.032;20.900;2023-03-01T10:39:21;10.40;99.90
50544;DHT22;41176;44.032;20.900;2023-03-01T10:41:59;10.40;99.90
50544;DHT22;41176;44.032;20.900;2023-03-01T10:44:46;10.50;99.90
50544;DHT22;41176;44.032;20.900;2023-03-01T10:47:22;10.40;99.90
50544;DHT22;41176;44.032;20.900;2023-03-01T10:50:20;10.20;99.90
50544;DHT22;41176;44.032;20.900;2023-03-01T10:53:00;10.00;99.90
50544;DHT22;41176;44.032;20.900;2023-03-01T10:58:08;9.80;99.90
50544;DHT22;41176;44.032;20.900;2023-03-01T11:00:37;9.80;99.90
50544;DHT22;41176;44.032;20.900;2023-03-01T11:03:13;9.70;99.90
50544;DHT22;41176;44.032;20.900;2023-03-01T11:06:36;9.70;99.90
50544;DHT22;41176;44.032;20.900;2023-03-01T11:08:42;9.60;99.90
50544;DHT22;41176;44.032;20.900;2023-03-01T11:11:29;9.60;99.90
50544;DHT22;41176;44.032;20.900;2023-03-01T11:14:12;9.60;99.90
50544;DHT22;41176;44.032;20.900;2023-03-01T11:16:43;9.50;99.90
50544;DHT22;41176;44.032;20.900;2023-03-01T11:24:11;9.70;99.90
50544;DHT22;41176;44.032;20.900;2023-03-01T11:26:41;9.80;99.90
50544;DHT22;41176;44.032;20.900;2023-03-01T11:29:17;9.90;99.90
50544;DHT22;41176;44.032;20.900;2023-03-01T11:31:47;10.00;99.90
50544;DHT22;41176;44.032;20.900;2023-03-01T11:34:23;10.10;99.90
50544;DHT22;41176;44.032;20.900;2023-03-01T11:36:59;10.20;99.90
50544;DHT22;41176;44.032;20.900;2023-03-01T11:42:06;10.50;99.90
50544;DHT22;41176;44.032;20.900;2023-03-01T11:44:36;10.60;99.90
50544;DHT22;41176;44.032;20.900;2023-03-01T11:55:17;11.00;99.30
50544;DHT22;41176;44.032;20.900;2023-03-01T12:03:27;11.00;98.20
50544;DHT22;41176;44.032;20.900;2023-03-01T12:20:47;11.20;97.20
50544;DHT22;41176;44.032;20.900;2023-03-01T12:31:30;11.10;93.20
50544;DHT22;41176;44.032;20.900;2023-03-01T12:34:22;11.00;94.80
50544;DHT22;41176;44.032;20.900;2023-03-01T12:48:08;11.00;94.70
50544;DHT22;41176;44.032;20.900;2023-03-01T12:50:42;11.10;94.10
50544;DHT22;41176;44.032;20.900;2023-03-01T12:53:32;11.20;93.40
50544;DHT22;41176;44.032;20.900;2023-03-01T12:56:05;11.00;91.70
50544;DHT22;41176;44.032;20.900;2023-03-01T12:58:45;11.00;93.20
50544;DHT22;41176;44.032;20.900;2023-03-01T13:15:29;10.80;92.00
50544;DHT22;41176;44.032;20.900;2023-03-01T13:20:50;10.70;93.60
50544;DHT22;41176;44.032;20.900;2023-03-01T13:28:38;10.50;93.90
50544;DHT22;41176;44.032;20.900;2023-03-01T13:31:55;10.70;93.80
50544;DHT22;41176;44.032;20.900;2023-03-01T13:34:00;10.70;93.30
50544;DHT22;41176;44.032;20.900;2023-03-01T13:38:57;10.40;92.40
50544;DHT22;41176;44.032;20.900;2023-03-01T13:46:47;10.10;93.30
50544;DHT22;41176;44.032;20.900;2023-03-01T13:49:33;10.20;95.20
50544;DHT22;41176;44.032;20.900;2023-03-01T13:52:01;10.30;94.90
50544;DHT22;41176;44.032;20.900;2023-03-01T13:54:33;10.10;94.00
50544;DHT22;41176;44.032;20.900;2023-03-01T13:57:00;10.00;95.30
50544;DHT22;41176;44.032;20.900;2023-03-01T13:59:26;10.00;95.80
50544;DHT22;41176;44.032;20.900;2023-03-01T14:01:57;10.10;96.40
50544;DHT22;41176;44.032;20.900;2023-03-01T14:04:32;10.10;94.90
50544;DHT22;41176;44.032;20.900;2023-03-01T14:07:22;9.90;95.60
50544;DHT22;41176;44.032;20.900;2023-03-01T14:09:55;9.80;95.70
50544;DHT22;41176;44.032;20.900;2023-03-01T14:12:44;9.80;96.20
50544;DHT22;41176;44.032;20.900;2023-03-01T14:18:15;9.60;96.10
50544;DHT22;41176;44.032;20.900;2023-03-01T14:20:45;9.60;96.50
50544;DHT22;41176;44.032;20.900;2023-03-01T14:23:22;9.70;97.50
50544;DHT22;41176;44.032;20.900;2023-03-01T14:25:53;9.70;97.30
50544;DHT22;41176;44.032;20.900;2023-03-01T14:28:26;9.80;98.30
50544;DHT22;41176;44.032;20.900;2023-03-01T14:30:57;10.00;98.60
50544;DHT22;41176;44.032;20.900;2023-03-01T14:38:30;10.10;96.60
50544;DHT22;41176;44.032;20.900;2023-03-01T14:40:59;10.00;97.30
50544;DHT22;41176;44.032;20.900;2023-03-01T14:43:27;10.00;96.90
50544;DHT22;41176;44.032;20.900;2023-03-01T14:45:54;10.10;96.80
50544;DHT22;41176;44.032;20.900;2023-03-01T14:48:21;10.00;96.60
50544;DHT22;41176;44.032;20.900;2023-03-01T14:50:47;9.80;97.50
50544;DHT22;41176;44.032;20.900;2023-03-01T14:53:34;9.60;99.30
50544;DHT22;41176;44.032;20.900;2023-03-01T14:56:01;9.50;99.90
50544;DHT22;41176;44.032;20.900;2023-03-01T14:58:27;9.40;99.90
50544;DHT22;41176;44.032;20.900;2023-03-01T15:01:02;9.40;99.90
50544;DHT22;41176;44.032;20.900;2023-03-01T15:03:35;9.30;99.90
50544;DHT22;41176;44.032;20.900;2023-03-01T15:06:02;9.30;99.90
50544;DHT22;41176;44.032;20.900;2023-03-01T15:08:28;9.20;99.90
50544;DHT22;41176;44.032;20.900;2023-03-01T15:13:33;9.10;99.90
50544;DHT22;41176;44.032;20.900;2023-03-01T15:16:12;9.10;99.90
50544;DHT22;41176;44.032;20.900;2023-03-01T15:18:53;9.10;99.90
50544;DHT22;41176;44.032;20.900;2023-03-01T15:21:25;9.20;99.90
50544;DHT22;41176;44.032;20.900;2023-03-01T15:23:56;9.20;99.90
50544;DHT22;41176;44.032;20.900;2023-03-01T15:26:30;9.10;99.90
50544;DHT22;41176;44.032;20.900;2023-03-01T15:28:58;9.00;99.90
50544;DHT22;41176;44.032;20.900;2023-03-01T15:31:27;9.00;99.90
50544;DHT22;41176;44.032;20.900;2023-03-01T15:34:19;9.00;99.90
50544;DHT22;41176;44.032;20.900;2023-03-01T15:36:47;8.90;99.90
50544;DHT22;41176;44.032;20.900;2023-03-01T15:42:12;8.80;99.90
50544;DHT22;41176;44.032;20.900;2023-03-01T15:44:40;8.80;99.90
50544;DHT22;41176;44.032;20.900;2023-03-01T15:47:29;8.80;99.90
50544;DHT22;41176;44.032;20.900;2023-03-01T15:49:56;8.70;99.90
50544;DHT22;41176;44.032;20.900;2023-03-01T15:55:00;8.70;99.90
50544;DHT22;41176;44.032;20.900;2023-03-01T15:57:27;8.60;99.90
50544;DHT22;41176;44.032;20.900;2023-03-01T15:59:52;8.60;99.90
50544;DHT22;41176;44.032;20.900;2023-03-01T16:02:18;8.60;99.90
50544;DHT22;41176;44.032;20.900;2023-03-01T16:04:46;8.50;99.90
50544;DHT22;41176;44.032;20.900;2023-03-01T16:07:13;8.50;99.90
50544;DHT22;41176;44.032;20.900;2023-03-01T16:09:38;8.40;99.90
50544;DHT22;41176;44.032;20.900;2023-03-01T16:12:05;8.40;99.90
50544;DHT22;41176;44.032;20.900;2023-03-01T16:14:31;8.30;99.90
50544;DHT22;41176;44.032;20.900;2023-03-01T16:16:57;8.30;99.90
50544;DHT22;41176;44.032;20.900;2023-03-01T16:19:22;8.30;99.90
50544;DHT22;41176;44.032;20.900;2023-03-01T16:21:48;8.30;99.90
50544;DHT22;41176;44.032;20.900;2023-03-01T16:24:15;8.30;99.90
50544;DHT22;41176;44.032;20.900;2023-03-01T16:26:41;8.20;99.90
50544;DHT22;41176;44.032;20.900;2023-03-01T16:29:07;8.10;99.90
50544;DHT22;41176;44.032;20.900;2023-03-01T16:31:33;8.10;99.90
50544;DHT22;41176;44.032;20.900;2023-03-01T16:33:59;8.10;99.90
50544;DHT22;41176;44.032;20.900;2023-03-01T16:36:28;8.10;99.90
50544;DHT22;41176;44.032;20.900;2023-03-01T16:38:55;8.00;99.90
50544;DHT22;41176;44.032;20.900;2023-03-01T16:41:22;8.00;99.90
50544;DHT22;41176;44.032;20.900;2023-03-01T16:43:48;8.00;99.90
50544;DHT22;41176;44.032;20.900;2023-03-01T16:46:17;7.90;99.90
50544;DHT22;41176;44.032;20.900;2023-03-01T16:48:43;7.90;99.90
50544;DHT22;41176;44.032;20.900;2023-03-01T16:51:09;8.00;99.90
50544;DHT22;41176;44.032;20.900;2023-03-01T16:53:36;8.00;99.90
50544;DHT22;41176;44.032;20.900;2023-03-01T16:56:04;7.90;99.90
50544;DHT22;41176;44.032;20.900;2023-03-01T16:58:30;8.00;99.90
50544;DHT22;41176;44.032;20.900;2023-03-01T17:00:56;8.00;99.90
50544;DHT22;41176;44.032;20.900;2023-03-01T17:03:24;8.00;99.90
50544;DHT22;41176;44.032;20.900;2023-03-01T17:05:51;8.00;99.90
50544;DHT22;41176;44.032;20.900;2023-03-01T17:08:17;8.10;99.90
50544;DHT22;41176;44.032;20.900;2023-03-01T17:10:43;8.10;99.90
50544;DHT22;41176;44.032;20.900;2023-03-01T17:13:10;8.00;99.90
50544;DHT22;41176;44.032;20.900;2023-03-01T17:15:40;8.00;99.90
50544;DHT22;41176;44.032;20.900;2023-03-01T17:18:07;8.10;99.90
50544;DHT22;41176;44.032;20.900;2023-03-01T17:20:33;8.10;99.90
50544;DHT22;41176;44.032;20.900;2023-03-01T17:22:59;8.10;99.90
50544;DHT22;41176;44.032;20.900;2023-03-01T17:25:24;8.10;99.90
50544;DHT22;41176;44.032;20.900;2023-03-01T17:27:50;8.20;99.90
50544;DHT22;41176;44.032;20.900;2023-03-01T17:30:16;8.20;99.90
50544;DHT22;41176;44.032;20.900;2023-03-01T17:32:42;8.10;99.90
50544;DHT22;41176;44.032;20.900;2023-03-01T17:35:08;8.20;99.90
50544;DHT22;41176;44.032;20.900;2023-03-01T17:37:37;8.10;99.90
50544;DHT22;41176;44.032;20.900;2023-03-01T17:40:04;8.20;99.90
50544;DHT22;41176;44.032;20.900;2023-03-01T17:42:31;8.20;99.90
50544;DHT22;41176;44.032;20.900;2023-03-01T17:44:57;8.30;99.90
50544;DHT22;41176;44.032;20.900;2023-03-01T17:47:23;8.30;99.90
50544;DHT22;41176;44.032;20.900;2023-03-01T17:49:49;8.30;99.90